sensor_id;sensor_type;location;lat;lon;timestamp;P1;durP1;ratioP1;P2;durP2;ratioP2
79399;SDS011;68856;45.586;10.264;2024-03-02T00:00:18;6.90;;;5.55;;
79399;SDS011;68856;45.586;10.264;2024-03-02T00:02:47;10.98;;;6.10;;
79399;SDS011;68856;45.586;10.264;2024-03-02T00:05:14;7.68;;;4.88;;
79399;SDS011;68856;45.586;10.264;2024-03-02T00:07:44;6.68;;;4.72;;
79399;SDS011;68856;45.586;10.264;2024-03-02T00:10:13;7.03;;;4.93;;
79399;SDS011;68856;45.586;10.264;2024-03-02T00:12:40;7.07;;;5.82;;
79399;SDS011;68856;45.586;10.264;2024-03-02T00:15:24;8.02;;;4.93;;
79399;SDS011;68856;45.586;10.264;2024-03-02T00:17:53;8.05;;;5.22;;
79399;SDS011;68856;45.586;10.264;2024-03-02T00:20:21;5.22;;;4.60;;
79399;SDS011;68856;45.586;10.264;2024-03-02T00:22:47;6.90;;;5.15;;
79399;SDS011;68856;45.586;10.264;2024-03-02T00:25:13;5.50;;;3.00;;
79399;SDS011;68856;45.586;10.264;2024-03-02T00:27:39;2.50;;;1.77;;
79399;SDS011;68856;45.586;10.264;2024-03-02T00:30:46;9.30;;;2.67;;
79399;SDS011;68856;45.586;10.264;2024-03-02T00:32:52;2.38;;;1.90;;
79399;SDS011;68856;45.586;10.264;2024-03-02T00:35:18;2.65;;;1.88;;
79399;SDS011;68856;45.586;10.264;2024-03-02T00:37:45;2.03;;;1.48;;
79399;SDS011;68856;45.586;10.264;2024-03-02T00:40:11;2.72;;;1.67;;
79399;SDS011;68856;45.586;10.264;2024-03-02T00:42:39;3.85;;;1.75;;
79399;SDS011;68856;45.586;10.264;2024-03-02T00:45:08;3.97;;;2.08;;
79399;SDS011;68856;45.586;10.264;2024-03-02T00:47:40;4.50;;;1.90;;
79399;SDS011;68856;45.586;10.264;2024-03-02T00:50:07;4.15;;;2.17;;
79399;SDS011;68856;45.586;10.264;2024-03-02T00:52:34;5.80;;;2.35;;
79399;SDS011;68856;45.586;10.264;2024-03-02T00:55:00;2.55;;;1.90;;
79399;SDS011;68856;45.586;10.264;2024-03-02T00:57:27;3.85;;;2.70;;
79399;SDS011;68856;45.586;10.264;2024-03-02T00:59:56;4.83;;;2.10;;
79399;SDS011;68856;45.586;10.264;2024-03-02T01:02:22;5.43;;;1.95;;
79399;SDS011;68856;45.586;10.264;2024-03-02T01:04:49;3.55;;;2.20;;
79399;SDS011;68856;45.586;10.264;2024-03-02T01:07:15;3.08;;;1.77;;
79399;SDS011;68856;45.586;10.264;2024-03-02T01:09:41;3.67;;;1.70;;
79399;SDS011;68856;45.586;10.264;2024-03-02T01:12:07;3.42;;;2.05;;
79399;SDS011;68856;45.586;10.264;2024-03-02T01:14:33;5.20;;;2.20;;
79399;SDS011;68856;45.586;10.264;2024-03-02T01:17:00;2.17;;;1.98;;
79399;SDS011;68856;45.586;10.264;2024-03-02T01:19:35;3.13;;;2.10;;
79399;SDS011;68856;45.586;10.264;2024-03-02T01:22:01;3.00;;;2.10;;
79399;SDS011;68856;45.586;10.264;2024-03-02T01:24:27;3.25;;;2.40;;
79399;SDS011;68856;45.586;10.264;2024-03-02T01:26:53;3.28;;;2.20;;
79399;SDS011;68856;45.586;10.264;2024-03-02T01:29:19;3.60;;;2.75;;
79399;SDS011;68856;45.586;10.264;2024-03-02T01:31:45;3.10;;;2.50;;
79399;SDS011;68856;45.586;10.264;2024-03-02T01:34:11;5.18;;;2.58;;
79399;SDS011;68856;45.586;10.264;2024-03-02T01:36:37;3.33;;;2.15;;
79399;SDS011;68856;45.586;10.264;2024-03-02T01:39:04;5.57;;;3.03;;
79399;SDS011;68856;45.586;10.264;2024-03-02T01:41:34;4.30;;;2.25;;
79399;SDS011;68856;45.586;10.264;2024-03-02T01:44:00;5.75;;;2.60;;
79399;SDS011;68856;45.586;10.264;2024-03-02T01:46:26;4.90;;;2.00;;
79399;SDS011;68856;45.586;10.264;2024-03-02T01:48:52;2.78;;;2.30;;
79399;SDS011;68856;45.586;10.264;2024-03-02T01:51:18;4.50;;;2.47;;
79399;SDS011;68856;45.586;10.264;2024-03-02T01:53:44;3.45;;;2.38;;
79399;SDS011;68856;45.586;10.264;2024-03-02T01:56:10;4.78;;;2.55;;
79399;SDS011;68856;45.586;10.264;2024-03-02T01:58:36;5.85;;;2.58;;
79399;SDS011;68856;45.586;10.264;2024-03-02T02:01:03;3.13;;;2.47;;
79399;SDS011;68856;45.586;10.264;2024-03-02T02:03:29;5.32;;;2.53;;
79399;SDS011;68856;45.586;10.264;2024-03-02T02:05:55;5.75;;;3.08;;
79399;SDS011;68856;45.586;10.264;2024-03-02T02:08:21;3.15;;;2.70;;
79399;SDS011;68856;45.586;10.264;2024-03-02T02:10:47;3.33;;;1.98;;
79399;SDS011;68856;45.586;10.264;2024-03-02T02:13:14;5.47;;;2.33;;
79399;SDS011;68856;45.586;10.264;2024-03-02T02:15:40;4.75;;;2.30;;
79399;SDS011;68856;45.586;10.264;2024-03-02T02:18:06;5.25;;;2.28;;
79399;SDS011;68856;45.586;10.264;2024-03-02T02:20:32;4.75;;;2.35;;
79399;SDS011;68856;45.586;10.264;2024-03-02T02:23:02;3.85;;;2.55;;
79399;SDS011;68856;45.586;10.264;2024-03-02T02:27:55;3.28;;;2.30;;
79399;SDS011;68856;45.586;10.264;2024-03-02T02:30:25;3.60;;;2.70;;
79399;SDS011;68856;45.586;10.264;2024-03-02T02:32:52;3.38;;;2.70;;
79399;SDS011;68856;45.586;10.264;2024-03-02T02:35:18;5.18;;;3.03;;
79399;SDS011;68856;45.586;10.264;2024-03-02T02:37:45;3.42;;;2.47;;
79399;SDS011;68856;45.586;10.264;2024-03-02T02:40:12;4.05;;;2.47;;
79399;SDS011;68856;45.586;10.264;2024-03-02T02:42:39;2.97;;;2.00;;
79399;SDS011;68856;45.586;10.264;2024-03-02T02:45:05;7.28;;;2.50;;
79399;SDS011;68856;45.586;10.264;2024-03-02T02:47:31;5.25;;;2.75;;
79399;SDS011;68856;45.586;10.264;2024-03-02T02:50:01;3.72;;;2.50;;
79399;SDS011;68856;45.586;10.264;2024-03-02T02:52:31;4.60;;;2.13;;
79399;SDS011;68856;45.586;10.264;2024-03-02T02:55:04;2.95;;;2.42;;
79399;SDS011;68856;45.586;10.264;2024-03-02T02:57:34;3.03;;;2.13;;
79399;SDS011;68856;45.586;10.264;2024-03-02T03:00:03;4.63;;;2.58;;
79399;SDS011;68856;45.586;10.264;2024-03-02T03:02:30;2.50;;;2.00;;
79399;SDS011;68856;45.586;10.264;2024-03-02T03:04:56;5.90;;;2.47;;
79399;SDS011;68856;45.586;10.264;2024-03-02T03:07:22;4.03;;;2.25;;
79399;SDS011;68856;45.586;10.264;2024-03-02T03:09:49;6.28;;;2.40;;
79399;SDS011;68856;45.586;10.264;2024-03-02T03:12:15;3.92;;;2.35;;
79399;SDS011;68856;45.586;10.264;2024-03-02T03:14:41;4.00;;;2.70;;
79399;SDS011;68856;45.586;10.264;2024-03-02T03:17:07;8.57;;;2.50;;
79399;SDS011;68856;45.586;10.264;2024-03-02T03:19:33;4.00;;;2.50;;
79399;SDS011;68856;45.586;10.264;2024-03-02T03:21:59;5.38;;;2.35;;
79399;SDS011;68856;45.586;10.264;2024-03-02T03:24:25;3.47;;;2.58;;
79399;SDS011;68856;45.586;10.264;2024-03-02T03:26:51;4.47;;;2.78;;
79399;SDS011;68856;45.586;10.264;2024-03-02T03:29:17;4.47;;;2.20;;
79399;SDS011;68856;45.586;10.264;2024-03-02T03:31:43;3.83;;;2.03;;
79399;SDS011;68856;45.586;10.264;2024-03-02T03:34:09;5.45;;;2.15;;
79399;SDS011;68856;45.586;10.264;2024-03-02T03:39:06;2.45;;;1.77;;
79399;SDS011;68856;45.586;10.264;2024-03-02T03:41:32;7.00;;;2.35;;
79399;SDS011;68856;45.586;10.264;2024-03-02T03:43:58;3.17;;;2.20;;
79399;SDS011;68856;45.586;10.264;2024-03-02T03:46:24;4.57;;;2.38;;
79399;SDS011;68856;45.586;10.264;2024-03-02T03:48:50;7.15;;;2.70;;
79399;SDS011;68856;45.586;10.264;2024-03-02T03:51:17;5.28;;;2.30;;
79399;SDS011;68856;45.586;10.264;2024-03-02T03:53:43;4.90;;;2.22;;
79399;SDS011;68856;45.586;10.264;2024-03-02T03:56:09;5.38;;;1.98;;
79399;SDS011;68856;45.586;10.264;2024-03-02T03:58:35;3.83;;;2.20;;
79399;SDS011;68856;45.586;10.264;2024-03-02T04:01:01;3.58;;;2.13;;
79399;SDS011;68856;45.586;10.264;2024-03-02T04:03:27;4.13;;;2.10;;
79399;SDS011;68856;45.586;10.264;2024-03-02T04:05:53;3.63;;;2.13;;
79399;SDS011;68856;45.586;10.264;2024-03-02T04:08:19;6.20;;;1.90;;
79399;SDS011;68856;45.586;10.264;2024-03-02T04:10:45;5.57;;;2.05;;
79399;SDS011;68856;45.586;10.264;2024-03-02T04:13:11;4.93;;;2.65;;
79399;SDS011;68856;45.586;10.264;2024-03-02T04:15:37;5.40;;;2.85;;
79399;SDS011;68856;45.586;10.264;2024-03-02T04:18:05;4.68;;;2.80;;
79399;SDS011;68856;45.586;10.264;2024-03-02T04:20:31;4.30;;;2.85;;
79399;SDS011;68856;45.586;10.264;2024-03-02T04:22:57;7.90;;;3.15;;
79399;SDS011;68856;45.586;10.264;2024-03-02T04:25:23;5.47;;;2.72;;
79399;SDS011;68856;45.586;10.264;2024-03-02T04:27:49;3.72;;;3.13;;
79399;SDS011;68856;45.586;10.264;2024-03-02T04:30:15;5.28;;;3.33;;
79399;SDS011;68856;45.586;10.264;2024-03-02T04:32:41;7.75;;;3.28;;
79399;SDS011;68856;45.586;10.264;2024-03-02T04:35:11;3.85;;;3.45;;
79399;SDS011;68856;45.586;10.264;2024-03-02T04:37:38;3.88;;;2.88;;
79399;SDS011;68856;45.586;10.264;2024-03-02T04:40:04;5.57;;;2.90;;
79399;SDS011;68856;45.586;10.264;2024-03-02T04:42:34;4.32;;;2.78;;
79399;SDS011;68856;45.586;10.264;2024-03-02T04:45:00;4.43;;;2.80;;
79399;SDS011;68856;45.586;10.264;2024-03-02T04:47:26;5.85;;;3.78;;
79399;SDS011;68856;45.586;10.264;2024-03-02T04:49:52;4.00;;;3.10;;
79399;SDS011;68856;45.586;10.264;2024-03-02T04:52:18;3.33;;;2.50;;
79399;SDS011;68856;45.586;10.264;2024-03-02T04:54:44;7.03;;;2.85;;
79399;SDS011;68856;45.586;10.264;2024-03-02T04:57:49;5.70;;;2.97;;
79399;SDS011;68856;45.586;10.264;2024-03-02T05:00:16;4.03;;;2.50;;
79399;SDS011;68856;45.586;10.264;2024-03-02T05:02:42;3.30;;;2.40;;
79399;SDS011;68856;45.586;10.264;2024-03-02T05:05:08;2.97;;;2.42;;
79399;SDS011;68856;45.586;10.264;2024-03-02T05:07:34;5.35;;;2.03;;
79399;SDS011;68856;45.586;10.264;2024-03-02T05:10:00;5.38;;;2.85;;
79399;SDS011;68856;45.586;10.264;2024-03-02T05:12:26;3.25;;;2.50;;
79399;SDS011;68856;45.586;10.264;2024-03-02T05:15:07;4.75;;;3.00;;
79399;SDS011;68856;45.586;10.264;2024-03-02T05:17:35;4.82;;;2.65;;
79399;SDS011;68856;45.586;10.264;2024-03-02T05:20:02;3.53;;;2.90;;
79399;SDS011;68856;45.586;10.264;2024-03-02T05:22:28;4.82;;;2.88;;
79399;SDS011;68856;45.586;10.264;2024-03-02T05:24:55;4.30;;;2.90;;
79399;SDS011;68856;45.586;10.264;2024-03-02T05:27:21;5.15;;;2.40;;
79399;SDS011;68856;45.586;10.264;2024-03-02T05:29:47;3.67;;;2.40;;
79399;SDS011;68856;45.586;10.264;2024-03-02T05:32:13;3.47;;;1.92;;
79399;SDS011;68856;45.586;10.264;2024-03-02T05:34:39;3.40;;;2.47;;
79399;SDS011;68856;45.586;10.264;2024-03-02T05:37:06;3.63;;;2.10;;
79399;SDS011;68856;45.586;10.264;2024-03-02T05:39:32;2.72;;;2.33;;
79399;SDS011;68856;45.586;10.264;2024-03-02T05:41:58;3.72;;;2.47;;
79399;SDS011;68856;45.586;10.264;2024-03-02T05:44:24;5.35;;;2.30;;
79399;SDS011;68856;45.586;10.264;2024-03-02T05:46:50;6.40;;;2.25;;
79399;SDS011;68856;45.586;10.264;2024-03-02T05:49:16;4.55;;;1.92;;
79399;SDS011;68856;45.586;10.264;2024-03-02T05:51:42;3.63;;;1.88;;
79399;SDS011;68856;45.586;10.264;2024-03-02T05:54:08;6.13;;;2.60;;
79399;SDS011;68856;45.586;10.264;2024-03-02T05:56:35;3.78;;;2.60;;
79399;SDS011;68856;45.586;10.264;2024-03-02T05:59:01;3.97;;;2.67;;
79399;SDS011;68856;45.586;10.264;2024-03-02T06:01:42;4.97;;;2.65;;
79399;SDS011;68856;45.586;10.264;2024-03-02T06:04:12;5.40;;;2.53;;
79399;SDS011;68856;45.586;10.264;2024-03-02T06:06:38;4.40;;;2.75;;
79399;SDS011;68856;45.586;10.264;2024-03-02T06:09:05;6.15;;;2.55;;
79399;SDS011;68856;45.586;10.264;2024-03-02T06:11:37;4.80;;;3.38;;
79399;SDS011;68856;45.586;10.264;2024-03-02T06:14:04;4.82;;;2.88;;
79399;SDS011;68856;45.586;10.264;2024-03-02T06:16:30;5.60;;;2.78;;
79399;SDS011;68856;45.586;10.264;2024-03-02T06:18:57;2.53;;;2.28;;
79399;SDS011;68856;45.586;10.264;2024-03-02T06:21:26;5.13;;;2.40;;
79399;SDS011;68856;45.586;10.264;2024-03-02T06:23:52;6.82;;;4.07;;
79399;SDS011;68856;45.586;10.264;2024-03-02T06:26:19;4.88;;;2.95;;
79399;SDS011;68856;45.586;10.264;2024-03-02T06:28:45;4.85;;;3.03;;
79399;SDS011;68856;45.586;10.264;2024-03-02T06:31:11;6.10;;;3.28;;
79399;SDS011;68856;45.586;10.264;2024-03-02T06:33:37;6.05;;;2.88;;
79399;SDS011;68856;45.586;10.264;2024-03-02T06:36:04;5.68;;;3.10;;
79399;SDS011;68856;45.586;10.264;2024-03-02T06:38:33;7.20;;;3.40;;
79399;SDS011;68856;45.586;10.264;2024-03-02T06:40:59;9.75;;;4.90;;
79399;SDS011;68856;45.586;10.264;2024-03-02T06:43:25;4.07;;;2.80;;
79399;SDS011;68856;45.586;10.264;2024-03-02T06:45:51;5.85;;;2.80;;
79399;SDS011;68856;45.586;10.264;2024-03-02T06:48:18;2.70;;;2.42;;
79399;SDS011;68856;45.586;10.264;2024-03-02T06:50:47;6.63;;;3.03;;
79399;SDS011;68856;45.586;10.264;2024-03-02T06:53:13;6.15;;;2.50;;
79399;SDS011;68856;45.586;10.264;2024-03-02T06:55:42;4.53;;;2.80;;
79399;SDS011;68856;45.586;10.264;2024-03-02T06:58:09;5.82;;;2.70;;
79399;SDS011;68856;45.586;10.264;2024-03-02T07:00:35;5.90;;;3.00;;
79399;SDS011;68856;45.586;10.264;2024-03-02T07:03:01;6.45;;;3.58;;
79399;SDS011;68856;45.586;10.264;2024-03-02T07:05:27;4.90;;;3.80;;
79399;SDS011;68856;45.586;10.264;2024-03-02T07:07:54;8.40;;;4.28;;
79399;SDS011;68856;45.586;10.264;2024-03-02T07:10:20;6.57;;;3.60;;
79399;SDS011;68856;45.586;10.264;2024-03-02T07:12:46;5.70;;;3.90;;
79399;SDS011;68856;45.586;10.264;2024-03-02T07:15:12;7.22;;;4.28;;
79399;SDS011;68856;45.586;10.264;2024-03-02T07:17:53;5.72;;;4.07;;
79399;SDS011;68856;45.586;10.264;2024-03-02T07:20:19;8.38;;;4.30;;
79399;SDS011;68856;45.586;10.264;2024-03-02T07:22:46;9.13;;;6.65;;
79399;SDS011;68856;45.586;10.264;2024-03-02T07:25:12;10.07;;;6.30;;
79399;SDS011;68856;45.586;10.264;2024-03-02T07:27:38;11.70;;;7.53;;
79399;SDS011;68856;45.586;10.264;2024-03-02T07:30:05;9.75;;;6.35;;
79399;SDS011;68856;45.586;10.264;2024-03-02T07:32:31;8.52;;;5.18;;
79399;SDS011;68856;45.586;10.264;2024-03-02T07:34:57;7.40;;;4.55;;
79399;SDS011;68856;45.586;10.264;2024-03-02T07:37:23;10.20;;;4.90;;
79399;SDS011;68856;45.586;10.264;2024-03-02T07:39:50;10.60;;;7.90;;
79399;SDS011;68856;45.586;10.264;2024-03-02T07:42:16;21.45;;;16.50;;
79399;SDS011;68856;45.586;10.264;2024-03-02T07:44:43;11.15;;;8.60;;
79399;SDS011;68856;45.586;10.264;2024-03-02T07:47:10;7.80;;;6.07;;
79399;SDS011;68856;45.586;10.264;2024-03-02T07:49:36;8.43;;;5.65;;
79399;SDS011;68856;45.586;10.264;2024-03-02T07:52:02;7.32;;;5.28;;
79399;SDS011;68856;45.586;10.264;2024-03-02T07:54:28;8.73;;;5.43;;
79399;SDS011;68856;45.586;10.264;2024-03-02T07:56:54;11.73;;;5.07;;
79399;SDS011;68856;45.586;10.264;2024-03-02T07:59:21;8.93;;;4.63;;
79399;SDS011;68856;45.586;10.264;2024-03-02T08:01:48;9.82;;;4.72;;
79399;SDS011;68856;45.586;10.264;2024-03-02T08:04:15;6.30;;;4.60;;
79399;SDS011;68856;45.586;10.264;2024-03-02T08:06:41;7.78;;;4.57;;
79399;SDS011;68856;45.586;10.264;2024-03-02T08:09:08;8.65;;;5.22;;
79399;SDS011;68856;45.586;10.264;2024-03-02T08:11:36;7.80;;;4.35;;
79399;SDS011;68856;45.586;10.264;2024-03-02T08:14:03;10.65;;;6.57;;
79399;SDS011;68856;45.586;10.264;2024-03-02T08:16:29;7.75;;;5.63;;
79399;SDS011;68856;45.586;10.264;2024-03-02T08:18:55;6.68;;;5.10;;
79399;SDS011;68856;45.586;10.264;2024-03-02T08:21:23;9.30;;;5.25;;
79399;SDS011;68856;45.586;10.264;2024-03-02T08:23:49;8.45;;;5.68;;
79399;SDS011;68856;45.586;10.264;2024-03-02T08:26:15;7.40;;;5.30;;
79399;SDS011;68856;45.586;10.264;2024-03-02T08:28:41;7.85;;;5.72;;
79399;SDS011;68856;45.586;10.264;2024-03-02T08:31:08;9.63;;;5.80;;
79399;SDS011;68856;45.586;10.264;2024-03-02T08:33:34;10.15;;;6.05;;
79399;SDS011;68856;45.586;10.264;2024-03-02T08:36:00;7.55;;;5.85;;
79399;SDS011;68856;45.586;10.264;2024-03-02T08:38:27;10.40;;;6.32;;
79399;SDS011;68856;45.586;10.264;2024-03-02T08:40:54;8.52;;;6.03;;
79399;SDS011;68856;45.586;10.264;2024-03-02T08:43:20;11.90;;;6.05;;
79399;SDS011;68856;45.586;10.264;2024-03-02T08:45:47;9.55;;;6.32;;
79399;SDS011;68856;45.586;10.264;2024-03-02T08:48:14;9.32;;;6.68;;
79399;SDS011;68856;45.586;10.264;2024-03-02T08:50:40;8.55;;;5.95;;
79399;SDS011;68856;45.586;10.264;2024-03-02T08:53:06;8.60;;;6.40;;
79399;SDS011;68856;45.586;10.264;2024-03-02T08:55:32;9.50;;;6.20;;
79399;SDS011;68856;45.586;10.264;2024-03-02T08:57:58;8.55;;;6.65;;
79399;SDS011;68856;45.586;10.264;2024-03-02T09:00:24;10.77;;;7.70;;
79399;SDS011;68856;45.586;10.264;2024-03-02T09:02:50;8.68;;;6.38;;
79399;SDS011;68856;45.586;10.264;2024-03-02T09:05:16;8.52;;;6.85;;
79399;SDS011;68856;45.586;10.264;2024-03-02T09:07:42;8.00;;;6.15;;
79399;SDS011;68856;45.586;10.264;2024-03-02T09:10:08;10.50;;;6.30;;
79399;SDS011;68856;45.586;10.264;2024-03-02T09:12:35;7.55;;;6.28;;
79399;SDS011;68856;45.586;10.264;2024-03-02T09:15:01;8.68;;;6.63;;
79399;SDS011;68856;45.586;10.264;2024-03-02T09:17:36;7.93;;;6.15;;
79399;SDS011;68856;45.586;10.264;2024-03-02T09:20:03;8.70;;;6.82;;
79399;SDS011;68856;45.586;10.264;2024-03-02T09:22:29;11.15;;;7.00;;
79399;SDS011;68856;45.586;10.264;2024-03-02T09:24:55;8.80;;;6.57;;
79399;SDS011;68856;45.586;10.264;2024-03-02T09:27:21;9.05;;;6.85;;
79399;SDS011;68856;45.586;10.264;2024-03-02T09:29:47;9.27;;;6.65;;
79399;SDS011;68856;45.586;10.264;2024-03-02T09:32:13;8.43;;;5.07;;
79399;SDS011;68856;45.586;10.264;2024-03-02T09:34:40;8.93;;;5.65;;
79399;SDS011;68856;45.586;10.264;2024-03-02T09:37:06;10.23;;;6.20;;
79399;SDS011;68856;45.586;10.264;2024-03-02T09:39:32;11.05;;;5.53;;
79399;SDS011;68856;45.586;10.264;2024-03-02T09:41:59;6.85;;;4.30;;
79399;SDS011;68856;45.586;10.264;2024-03-02T09:44:25;8.60;;;2.97;;
79399;SDS011;68856;45.586;10.264;2024-03-02T09:46:52;6.32;;;1.88;;
79399;SDS011;68856;45.586;10.264;2024-03-02T09:49:18;6.78;;;1.98;;
79399;SDS011;68856;45.586;10.264;2024-03-02T09:51:46;5.90;;;2.22;;
79399;SDS011;68856;45.586;10.264;2024-03-02T09:54:12;7.10;;;2.30;;
79399;SDS011;68856;45.586;10.264;2024-03-02T09:56:39;6.35;;;2.45;;
79399;SDS011;68856;45.586;10.264;2024-03-02T09:59:05;5.80;;;1.92;;
79399;SDS011;68856;45.586;10.264;2024-03-02T10:01:31;2.13;;;1.90;;
79399;SDS011;68856;45.586;10.264;2024-03-02T10:03:59;3.10;;;1.75;;
79399;SDS011;68856;45.586;10.264;2024-03-02T10:06:25;4.25;;;2.08;;
79399;SDS011;68856;45.586;10.264;2024-03-02T10:08:52;7.13;;;2.88;;
79399;SDS011;68856;45.586;10.264;2024-03-02T10:14:05;3.40;;;2.50;;
79399;SDS011;68856;45.586;10.264;2024-03-02T10:16:44;7.43;;;2.75;;
79399;SDS011;68856;45.586;10.264;2024-03-02T10:21:42;3.78;;;2.28;;
79399;SDS011;68856;45.586;10.264;2024-03-02T10:24:08;4.65;;;2.20;;
79399;SDS011;68856;45.586;10.264;2024-03-02T10:26:34;3.72;;;2.10;;
79399;SDS011;68856;45.586;10.264;2024-03-02T10:29:00;4.03;;;2.10;;
79399;SDS011;68856;45.586;10.264;2024-03-02T10:31:27;5.18;;;2.45;;
79399;SDS011;68856;45.586;10.264;2024-03-02T10:34:03;5.90;;;2.22;;
79399;SDS011;68856;45.586;10.264;2024-03-02T10:36:29;6.05;;;2.13;;
79399;SDS011;68856;45.586;10.264;2024-03-02T10:38:58;6.35;;;3.00;;
79399;SDS011;68856;45.586;10.264;2024-03-02T10:41:26;6.85;;;3.13;;
79399;SDS011;68856;45.586;10.264;2024-03-02T10:43:52;5.68;;;3.70;;
79399;SDS011;68856;45.586;10.264;2024-03-02T10:46:27;5.90;;;3.28;;
79399;SDS011;68856;45.586;10.264;2024-03-02T10:48:57;5.03;;;2.72;;
79399;SDS011;68856;45.586;10.264;2024-03-02T10:51:27;3.20;;;2.20;;
79399;SDS011;68856;45.586;10.264;2024-03-02T10:53:56;6.78;;;2.97;;
79399;SDS011;68856;45.586;10.264;2024-03-02T10:56:27;6.70;;;2.75;;
79399;SDS011;68856;45.586;10.264;2024-03-02T10:59:06;3.30;;;2.20;;
79399;SDS011;68856;45.586;10.264;2024-03-02T11:01:37;4.63;;;2.22;;
79399;SDS011;68856;45.586;10.264;2024-03-02T11:04:04;4.15;;;3.00;;
79399;SDS011;68856;45.586;10.264;2024-03-02T11:06:34;4.82;;;2.28;;
79399;SDS011;68856;45.586;10.264;2024-03-02T11:09:06;4.25;;;1.92;;
79399;SDS011;68856;45.586;10.264;2024-03-02T11:11:36;7.80;;;2.00;;
79399;SDS011;68856;45.586;10.264;2024-03-02T11:14:04;3.80;;;1.90;;
79399;SDS011;68856;45.586;10.264;2024-03-02T11:16:34;5.45;;;1.95;;
79399;SDS011;68856;45.586;10.264;2024-03-02T11:19:10;5.60;;;2.20;;
79399;SDS011;68856;45.586;10.264;2024-03-02T11:21:37;3.25;;;1.90;;
79399;SDS011;68856;45.586;10.264;2024-03-02T11:26:52;5.88;;;1.83;;
79399;SDS011;68856;45.586;10.264;2024-03-02T11:32:06;4.80;;;2.65;;
79399;SDS011;68856;45.586;10.264;2024-03-02T11:34:33;3.90;;;1.90;;
79399;SDS011;68856;45.586;10.264;2024-03-02T11:37:03;4.82;;;2.13;;
79399;SDS011;68856;45.586;10.264;2024-03-02T11:39:29;4.38;;;1.67;;
79399;SDS011;68856;45.586;10.264;2024-03-02T11:41:58;3.45;;;1.33;;
79399;SDS011;68856;45.586;10.264;2024-03-02T11:44:28;3.50;;;1.65;;
79399;SDS011;68856;45.586;10.264;2024-03-02T11:46:58;3.50;;;0.98;;
79399;SDS011;68856;45.586;10.264;2024-03-02T11:49:46;2.25;;;0.90;;
79399;SDS011;68856;45.586;10.264;2024-03-02T11:52:11;4.85;;;1.08;;
79399;SDS011;68856;45.586;10.264;2024-03-02T11:54:38;2.33;;;1.20;;
79399;SDS011;68856;45.586;10.264;2024-03-02T11:57:07;3.08;;;1.10;;
79399;SDS011;68856;45.586;10.264;2024-03-02T11:59:33;4.15;;;1.40;;
79399;SDS011;68856;45.586;10.264;2024-03-02T12:02:00;2.55;;;0.95;;
79399;SDS011;68856;45.586;10.264;2024-03-02T12:04:26;3.40;;;1.00;;
79399;SDS011;68856;45.586;10.264;2024-03-02T12:06:55;1.73;;;1.00;;
79399;SDS011;68856;45.586;10.264;2024-03-02T12:09:24;4.32;;;1.38;;
79399;SDS011;68856;45.586;10.264;2024-03-02T12:12:12;1.30;;;1.00;;
79399;SDS011;68856;45.586;10.264;2024-03-02T12:14:49;4.60;;;2.42;;
79399;SDS011;68856;45.586;10.264;2024-03-02T12:17:15;2.58;;;0.80;;
79399;SDS011;68856;45.586;10.264;2024-03-02T12:19:41;3.42;;;1.13;;
79399;SDS011;68856;45.586;10.264;2024-03-02T12:22:07;3.95;;;1.00;;
79399;SDS011;68856;45.586;10.264;2024-03-02T12:24:33;1.85;;;1.17;;
79399;SDS011;68856;45.586;10.264;2024-03-02T12:26:59;1.88;;;0.73;;
79399;SDS011;68856;45.586;10.264;2024-03-02T12:29:26;2.90;;;0.93;;
79399;SDS011;68856;45.586;10.264;2024-03-02T12:31:52;3.38;;;1.23;;
79399;SDS011;68856;45.586;10.264;2024-03-02T12:34:18;2.20;;;1.30;;
79399;SDS011;68856;45.586;10.264;2024-03-02T12:36:48;3.78;;;1.00;;
79399;SDS011;68856;45.586;10.264;2024-03-02T12:39:18;3.13;;;1.17;;
79399;SDS011;68856;45.586;10.264;2024-03-02T12:41:44;1.45;;;0.70;;
79399;SDS011;68856;45.586;10.264;2024-03-02T12:44:10;0.57;;;0.57;;
79399;SDS011;68856;45.586;10.264;2024-03-02T12:46:36;1.20;;;0.57;;
79399;SDS011;68856;45.586;10.264;2024-03-02T12:49:09;2.15;;;1.00;;
79399;SDS011;68856;45.586;10.264;2024-03-02T12:51:39;0.82;;;0.82;;
79399;SDS011;68856;45.586;10.264;2024-03-02T12:54:06;1.08;;;0.50;;
79399;SDS011;68856;45.586;10.264;2024-03-02T12:56:32;1.98;;;0.80;;
79399;SDS011;68856;45.586;10.264;2024-03-02T12:58:58;1.60;;;0.90;;
79399;SDS011;68856;45.586;10.264;2024-03-02T13:01:25;1.10;;;0.82;;
79399;SDS011;68856;45.586;10.264;2024-03-02T13:03:52;1.63;;;0.70;;
79399;SDS011;68856;45.586;10.264;2024-03-02T13:06:20;4.30;;;1.25;;
79399;SDS011;68856;45.586;10.264;2024-03-02T13:08:46;3.13;;;2.03;;
79399;SDS011;68856;45.586;10.264;2024-03-02T13:11:13;3.50;;;2.10;;
79399;SDS011;68856;45.586;10.264;2024-03-02T13:13:39;3.92;;;1.38;;
79399;SDS011;68856;45.586;10.264;2024-03-02T13:16:09;4.40;;;1.50;;
79399;SDS011;68856;45.586;10.264;2024-03-02T13:18:35;3.45;;;2.33;;
79399;SDS011;68856;45.586;10.264;2024-03-02T13:21:02;4.50;;;1.55;;
79399;SDS011;68856;45.586;10.264;2024-03-02T13:23:28;4.57;;;1.83;;
79399;SDS011;68856;45.586;10.264;2024-03-02T13:25:56;3.55;;;3.05;;
79399;SDS011;68856;45.586;10.264;2024-03-02T13:28:23;5.35;;;3.15;;
79399;SDS011;68856;45.586;10.264;2024-03-02T13:30:49;4.53;;;3.20;;
79399;SDS011;68856;45.586;10.264;2024-03-02T13:33:15;3.60;;;2.00;;
79399;SDS011;68856;45.586;10.264;2024-03-02T13:35:44;4.28;;;2.50;;
79399;SDS011;68856;45.586;10.264;2024-03-02T13:38:10;4.20;;;2.15;;
79399;SDS011;68856;45.586;10.264;2024-03-02T13:40:36;2.30;;;1.77;;
79399;SDS011;68856;45.586;10.264;2024-03-02T13:43:02;3.92;;;2.00;;
79399;SDS011;68856;45.586;10.264;2024-03-02T13:45:29;5.20;;;1.70;;
79399;SDS011;68856;45.586;10.264;2024-03-02T13:47:55;3.88;;;2.13;;
79399;SDS011;68856;45.586;10.264;2024-03-02T13:50:21;2.63;;;2.00;;
79399;SDS011;68856;45.586;10.264;2024-03-02T13:52:47;2.83;;;1.63;;
79399;SDS011;68856;45.586;10.264;2024-03-02T13:55:13;2.00;;;1.27;;
79399;SDS011;68856;45.586;10.264;2024-03-02T13:57:39;5.60;;;1.90;;
79399;SDS011;68856;45.586;10.264;2024-03-02T14:00:06;8.38;;;1.55;;
79399;SDS011;68856;45.586;10.264;2024-03-02T14:02:35;4.57;;;2.10;;
79399;SDS011;68856;45.586;10.264;2024-03-02T14:05:01;6.47;;;2.63;;
79399;SDS011;68856;45.586;10.264;2024-03-02T14:07:28;4.60;;;1.60;;
79399;SDS011;68856;45.586;10.264;2024-03-02T14:09:54;4.28;;;1.65;;
79399;SDS011;68856;45.586;10.264;2024-03-02T14:12:20;2.85;;;1.67;;
79399;SDS011;68856;45.586;10.264;2024-03-02T14:14:47;2.90;;;1.30;;
79399;SDS011;68856;45.586;10.264;2024-03-02T14:17:16;3.90;;;1.63;;
79399;SDS011;68856;45.586;10.264;2024-03-02T14:19:42;5.65;;;2.05;;
79399;SDS011;68856;45.586;10.264;2024-03-02T14:22:08;3.33;;;2.03;;
79399;SDS011;68856;45.586;10.264;2024-03-02T14:24:34;2.40;;;1.63;;
79399;SDS011;68856;45.586;10.264;2024-03-02T14:27:00;5.93;;;2.72;;
79399;SDS011;68856;45.586;10.264;2024-03-02T14:29:30;5.22;;;2.28;;
79399;SDS011;68856;45.586;10.264;2024-03-02T14:31:56;5.68;;;1.80;;
79399;SDS011;68856;45.586;10.264;2024-03-02T14:34:22;4.50;;;1.85;;
79399;SDS011;68856;45.586;10.264;2024-03-02T14:36:48;5.85;;;2.63;;
79399;SDS011;68856;45.586;10.264;2024-03-02T14:39:14;4.05;;;2.50;;
79399;SDS011;68856;45.586;10.264;2024-03-02T14:41:40;8.48;;;3.63;;
79399;SDS011;68856;45.586;10.264;2024-03-02T14:44:06;5.43;;;2.67;;
79399;SDS011;68856;45.586;10.264;2024-03-02T14:46:32;4.70;;;2.25;;
79399;SDS011;68856;45.586;10.264;2024-03-02T14:48:58;5.53;;;4.57;;